KFFX

Fremont Municipal Airport

Fremont, Michigan, USA
METAR KFFX 230257Z AUTO 00000KT 10SM CLR 12/11 A3006 RMK AO2 T01160111
Observed Flight Rules
May-23 @ 02:57 UTC (23 minutes ago) Visual Flight Rules
Visibility Clouds
10 miles
  • Clear skies
Temperatures Readings
Current 12°C / 54°F
Dewpoint 11°C / 52°F
Humidity 94%
Altimeter 30.06" Hg
Pressure 1018 hPa
Elevation 236
METAR KFFX 230257Z AUTO 00000KT 10SM CLR 12/11 A3006 RMK AO2 T01160111
Observed Flight Rules
May-23 @ 02:57 UTC
(23 minutes ago)
VFR
Clouds
  • Clear skies
Temperature Dewpoint
12°C / 54°F 11°C / 52°F
Humidity Altimeter Pressure
94% 30.06" Hg 1018 hPa